sensor_id;sensor_type;location;lat;lon;timestamp;P1;durP1;ratioP1;P2;durP2;ratioP2
59972;SDS011;55298;-36.624;-64.282;2023-06-22T00:02:25;13.60;;;11.35;;
59972;SDS011;55298;-36.624;-64.282;2023-06-22T00:04:53;13.63;;;11.82;;
59972;SDS011;55298;-36.624;-64.282;2023-06-22T00:07:21;17.63;;;12.95;;
59972;SDS011;55298;-36.624;-64.282;2023-06-22T00:09:49;11.98;;;10.80;;
59972;SDS011;55298;-36.624;-64.282;2023-06-22T00:12:17;14.48;;;13.00;;
59972;SDS011;55298;-36.624;-64.282;2023-06-22T00:14:48;24.77;;;20.23;;
59972;SDS011;55298;-36.624;-64.282;2023-06-22T00:17:15;13.40;;;12.02;;
59972;SDS011;55298;-36.624;-64.282;2023-06-22T00:19:47;12.57;;;10.38;;
59972;SDS011;55298;-36.624;-64.282;2023-06-22T00:22:24;12.20;;;10.45;;
59972;SDS011;55298;-36.624;-64.282;2023-06-22T00:24:57;10.60;;;9.63;;
59972;SDS011;55298;-36.624;-64.282;2023-06-22T00:27:36;11.65;;;9.43;;
59972;SDS011;55298;-36.624;-64.282;2023-06-22T00:30:04;13.43;;;10.88;;
59972;SDS011;55298;-36.624;-64.282;2023-06-22T00:32:32;10.57;;;9.68;;
59972;SDS011;55298;-36.624;-64.282;2023-06-22T00:35:00;14.73;;;13.23;;
59972;SDS011;55298;-36.624;-64.282;2023-06-22T00:37:31;14.73;;;13.23;;
59972;SDS011;55298;-36.624;-64.282;2023-06-22T00:40:01;10.18;;;9.38;;
59972;SDS011;55298;-36.624;-64.282;2023-06-22T00:45:01;9.30;;;8.50;;
59972;SDS011;55298;-36.624;-64.282;2023-06-22T00:49:54;9.65;;;8.85;;
59972;SDS011;55298;-36.624;-64.282;2023-06-22T00:52:22;10.43;;;9.25;;
59972;SDS011;55298;-36.624;-64.282;2023-06-22T00:54:55;10.45;;;8.55;;
59972;SDS011;55298;-36.624;-64.282;2023-06-22T00:57:27;10.57;;;9.15;;
59972;SDS011;55298;-36.624;-64.282;2023-06-22T00:59:58;11.05;;;9.80;;
59972;SDS011;55298;-36.624;-64.282;2023-06-22T01:02:27;10.85;;;9.55;;
59972;SDS011;55298;-36.624;-64.282;2023-06-22T01:04:55;10.43;;;9.40;;
59972;SDS011;55298;-36.624;-64.282;2023-06-22T01:07:27;9.93;;;9.13;;
59972;SDS011;55298;-36.624;-64.282;2023-06-22T01:10:13;9.05;;;8.25;;
59972;SDS011;55298;-36.624;-64.282;2023-06-22T01:15:23;9.85;;;8.85;;
59972;SDS011;55298;-36.624;-64.282;2023-06-22T01:17:56;8.60;;;7.80;;
59972;SDS011;55298;-36.624;-64.282;2023-06-22T01:20:26;9.57;;;8.77;;
59972;SDS011;55298;-36.624;-64.282;2023-06-22T01:23:02;10.00;;;9.00;;
59972;SDS011;55298;-36.624;-64.282;2023-06-22T01:25:45;10.15;;;8.93;;
59972;SDS011;55298;-36.624;-64.282;2023-06-22T01:31:18;9.95;;;9.05;;
59972;SDS011;55298;-36.624;-64.282;2023-06-22T01:33:50;10.80;;;8.85;;
59972;SDS011;55298;-36.624;-64.282;2023-06-22T01:36:18;9.30;;;8.50;;
59972;SDS011;55298;-36.624;-64.282;2023-06-22T01:38:50;9.60;;;8.80;;
59972;SDS011;55298;-36.624;-64.282;2023-06-22T01:41:20;9.23;;;8.32;;
59972;SDS011;55298;-36.624;-64.282;2023-06-22T01:43:48;9.30;;;8.50;;
59972;SDS011;55298;-36.624;-64.282;2023-06-22T01:46:18;9.50;;;8.70;;
59972;SDS011;55298;-36.624;-64.282;2023-06-22T01:48:51;11.77;;;8.52;;
59972;SDS011;55298;-36.624;-64.282;2023-06-22T01:51:20;9.82;;;8.98;;
59972;SDS011;55298;-36.624;-64.282;2023-06-22T01:53:48;10.40;;;9.50;;
59972;SDS011;55298;-36.624;-64.282;2023-06-22T01:56:16;10.00;;;9.10;;
59972;SDS011;55298;-36.624;-64.282;2023-06-22T01:58:59;10.00;;;8.82;;
59972;SDS011;55298;-36.624;-64.282;2023-06-22T02:01:35;9.07;;;8.27;;
59972;SDS011;55298;-36.624;-64.282;2023-06-22T02:04:16;9.85;;;8.77;;
59972;SDS011;55298;-36.624;-64.282;2023-06-22T02:06:51;9.45;;;8.45;;
59972;SDS011;55298;-36.624;-64.282;2023-06-22T02:09:23;8.43;;;7.65;;
59972;SDS011;55298;-36.624;-64.282;2023-06-22T02:11:57;9.43;;;8.60;;
59972;SDS011;55298;-36.624;-64.282;2023-06-22T02:14:26;9.68;;;8.57;;
59972;SDS011;55298;-36.624;-64.282;2023-06-22T02:16:56;8.68;;;7.85;;
59972;SDS011;55298;-36.624;-64.282;2023-06-22T02:19:26;9.15;;;8.13;;
59972;SDS011;55298;-36.624;-64.282;2023-06-22T02:21:58;8.70;;;7.90;;
59972;SDS011;55298;-36.624;-64.282;2023-06-22T02:24:34;8.10;;;7.40;;
59972;SDS011;55298;-36.624;-64.282;2023-06-22T02:27:03;8.88;;;8.18;;
59972;SDS011;55298;-36.624;-64.282;2023-06-22T02:29:34;9.68;;;8.88;;
59972;SDS011;55298;-36.624;-64.282;2023-06-22T02:32:03;9.57;;;8.57;;
59972;SDS011;55298;-36.624;-64.282;2023-06-22T02:34:31;10.13;;;9.15;;
59972;SDS011;55298;-36.624;-64.282;2023-06-22T02:37:17;9.18;;;8.38;;
59972;SDS011;55298;-36.624;-64.282;2023-06-22T02:39:53;8.93;;;8.10;;
59972;SDS011;55298;-36.624;-64.282;2023-06-22T02:42:35;9.25;;;8.52;;
59972;SDS011;55298;-36.624;-64.282;2023-06-22T02:45:05;9.07;;;8.38;;
59972;SDS011;55298;-36.624;-64.282;2023-06-22T02:47:33;9.35;;;8.65;;
59972;SDS011;55298;-36.624;-64.282;2023-06-22T02:50:01;9.88;;;8.60;;
59972;SDS011;55298;-36.624;-64.282;2023-06-22T02:52:29;9.82;;;8.32;;
59972;SDS011;55298;-36.624;-64.282;2023-06-22T02:55:00;9.38;;;8.57;;
59972;SDS011;55298;-36.624;-64.282;2023-06-22T02:57:29;9.20;;;8.40;;
59972;SDS011;55298;-36.624;-64.282;2023-06-22T02:59:57;10.57;;;9.65;;
59972;SDS011;55298;-36.624;-64.282;2023-06-22T03:02:28;10.23;;;9.32;;
59972;SDS011;55298;-36.624;-64.282;2023-06-22T03:04:56;11.63;;;10.52;;
59972;SDS011;55298;-36.624;-64.282;2023-06-22T03:07:23;11.20;;;10.20;;
59972;SDS011;55298;-36.624;-64.282;2023-06-22T03:09:51;10.63;;;9.70;;
59972;SDS011;55298;-36.624;-64.282;2023-06-22T03:12:20;11.50;;;10.40;;
59972;SDS011;55298;-36.624;-64.282;2023-06-22T03:14:49;11.00;;;10.10;;
59972;SDS011;55298;-36.624;-64.282;2023-06-22T03:17:17;12.25;;;11.13;;
59972;SDS011;55298;-36.624;-64.282;2023-06-22T03:19:45;11.80;;;10.60;;
59972;SDS011;55298;-36.624;-64.282;2023-06-22T03:22:13;11.65;;;10.65;;
59972;SDS011;55298;-36.624;-64.282;2023-06-22T03:24:41;13.57;;;11.38;;
59972;SDS011;55298;-36.624;-64.282;2023-06-22T03:27:09;12.48;;;11.18;;
59972;SDS011;55298;-36.624;-64.282;2023-06-22T03:29:36;12.68;;;11.48;;
59972;SDS011;55298;-36.624;-64.282;2023-06-22T03:32:04;12.32;;;11.23;;
59972;SDS011;55298;-36.624;-64.282;2023-06-22T03:34:33;12.65;;;11.50;;
59972;SDS011;55298;-36.624;-64.282;2023-06-22T03:37:02;11.60;;;10.60;;
59972;SDS011;55298;-36.624;-64.282;2023-06-22T03:39:31;11.93;;;10.73;;
59972;SDS011;55298;-36.624;-64.282;2023-06-22T03:42:02;12.75;;;11.48;;
59972;SDS011;55298;-36.624;-64.282;2023-06-22T03:44:30;12.45;;;11.35;;
59972;SDS011;55298;-36.624;-64.282;2023-06-22T03:46:58;12.95;;;11.68;;
59972;SDS011;55298;-36.624;-64.282;2023-06-22T03:49:27;12.95;;;11.75;;
59972;SDS011;55298;-36.624;-64.282;2023-06-22T03:51:55;11.82;;;10.63;;
59972;SDS011;55298;-36.624;-64.282;2023-06-22T03:54:23;12.23;;;11.02;;
59972;SDS011;55298;-36.624;-64.282;2023-06-22T03:56:51;12.45;;;11.25;;
59972;SDS011;55298;-36.624;-64.282;2023-06-22T03:59:20;12.68;;;11.35;;
59972;SDS011;55298;-36.624;-64.282;2023-06-22T04:01:55;12.23;;;10.88;;
59972;SDS011;55298;-36.624;-64.282;2023-06-22T04:04:23;13.10;;;11.90;;
59972;SDS011;55298;-36.624;-64.282;2023-06-22T04:06:53;13.80;;;12.40;;
59972;SDS011;55298;-36.624;-64.282;2023-06-22T04:09:21;12.82;;;11.55;;
59972;SDS011;55298;-36.624;-64.282;2023-06-22T04:11:52;13.57;;;12.05;;
59972;SDS011;55298;-36.624;-64.282;2023-06-22T04:14:20;12.48;;;11.20;;
59972;SDS011;55298;-36.624;-64.282;2023-06-22T04:16:55;12.60;;;11.43;;
59972;SDS011;55298;-36.624;-64.282;2023-06-22T04:19:24;13.38;;;12.07;;
59972;SDS011;55298;-36.624;-64.282;2023-06-22T04:21:52;13.23;;;11.90;;
59972;SDS011;55298;-36.624;-64.282;2023-06-22T04:24:20;13.05;;;11.43;;
59972;SDS011;55298;-36.624;-64.282;2023-06-22T04:26:47;13.10;;;11.73;;
59972;SDS011;55298;-36.624;-64.282;2023-06-22T04:29:20;13.68;;;12.38;;
59972;SDS011;55298;-36.624;-64.282;2023-06-22T04:31:56;12.05;;;10.80;;
59972;SDS011;55298;-36.624;-64.282;2023-06-22T04:34:31;13.30;;;12.10;;
59972;SDS011;55298;-36.624;-64.282;2023-06-22T04:37:01;12.90;;;11.60;;
59972;SDS011;55298;-36.624;-64.282;2023-06-22T04:39:30;12.60;;;11.38;;
59972;SDS011;55298;-36.624;-64.282;2023-06-22T04:41:58;13.43;;;12.23;;
59972;SDS011;55298;-36.624;-64.282;2023-06-22T04:44:26;12.60;;;11.50;;
59972;SDS011;55298;-36.624;-64.282;2023-06-22T04:46:55;13.10;;;11.77;;
59972;SDS011;55298;-36.624;-64.282;2023-06-22T04:49:29;12.43;;;11.23;;
59972;SDS011;55298;-36.624;-64.282;2023-06-22T04:52:03;13.57;;;11.68;;
59972;SDS011;55298;-36.624;-64.282;2023-06-22T04:54:34;12.57;;;11.18;;
59972;SDS011;55298;-36.624;-64.282;2023-06-22T04:57:04;12.25;;;11.05;;
59972;SDS011;55298;-36.624;-64.282;2023-06-22T04:59:37;12.68;;;11.45;;
59972;SDS011;55298;-36.624;-64.282;2023-06-22T05:02:07;11.63;;;10.40;;
59972;SDS011;55298;-36.624;-64.282;2023-06-22T05:04:36;12.18;;;11.02;;
59972;SDS011;55298;-36.624;-64.282;2023-06-22T05:07:04;12.43;;;11.23;;
59972;SDS011;55298;-36.624;-64.282;2023-06-22T05:09:32;12.63;;;11.30;;
59972;SDS011;55298;-36.624;-64.282;2023-06-22T05:12:03;12.38;;;11.25;;
59972;SDS011;55298;-36.624;-64.282;2023-06-22T05:14:33;17.95;;;11.82;;
59972;SDS011;55298;-36.624;-64.282;2023-06-22T05:17:03;12.70;;;11.50;;
59972;SDS011;55298;-36.624;-64.282;2023-06-22T05:19:39;13.18;;;10.90;;
59972;SDS011;55298;-36.624;-64.282;2023-06-22T05:22:11;11.53;;;10.43;;
59972;SDS011;55298;-36.624;-64.282;2023-06-22T05:24:39;12.32;;;11.10;;
59972;SDS011;55298;-36.624;-64.282;2023-06-22T05:27:07;12.02;;;10.88;;
59972;SDS011;55298;-36.624;-64.282;2023-06-22T05:29:36;11.30;;;10.20;;
59972;SDS011;55298;-36.624;-64.282;2023-06-22T05:32:04;11.55;;;10.45;;
59972;SDS011;55298;-36.624;-64.282;2023-06-22T05:34:33;12.57;;;11.35;;
59972;SDS011;55298;-36.624;-64.282;2023-06-22T05:37:01;11.00;;;9.82;;
59972;SDS011;55298;-36.624;-64.282;2023-06-22T05:39:30;11.45;;;10.45;;
59972;SDS011;55298;-36.624;-64.282;2023-06-22T05:42:00;12.55;;;10.90;;
59972;SDS011;55298;-36.624;-64.282;2023-06-22T05:44:27;10.98;;;10.05;;
59972;SDS011;55298;-36.624;-64.282;2023-06-22T05:46:56;11.85;;;10.65;;
59972;SDS011;55298;-36.624;-64.282;2023-06-22T05:49:24;11.23;;;10.27;;
59972;SDS011;55298;-36.624;-64.282;2023-06-22T05:51:58;11.52;;;10.32;;
59972;SDS011;55298;-36.624;-64.282;2023-06-22T05:54:28;11.05;;;10.05;;
59972;SDS011;55298;-36.624;-64.282;2023-06-22T05:56:57;11.13;;;10.20;;
59972;SDS011;55298;-36.624;-64.282;2023-06-22T05:59:30;11.05;;;10.05;;
59972;SDS011;55298;-36.624;-64.282;2023-06-22T06:01:58;12.07;;;10.98;;
59972;SDS011;55298;-36.624;-64.282;2023-06-22T06:04:26;11.40;;;10.43;;
59972;SDS011;55298;-36.624;-64.282;2023-06-22T06:06:54;10.75;;;9.75;;
59972;SDS011;55298;-36.624;-64.282;2023-06-22T06:09:25;11.10;;;10.00;;
59972;SDS011;55298;-36.624;-64.282;2023-06-22T06:11:53;10.57;;;9.57;;
59972;SDS011;55298;-36.624;-64.282;2023-06-22T06:14:21;10.82;;;9.82;;
59972;SDS011;55298;-36.624;-64.282;2023-06-22T06:16:49;11.40;;;10.38;;
59972;SDS011;55298;-36.624;-64.282;2023-06-22T06:19:17;11.40;;;10.27;;
59972;SDS011;55298;-36.624;-64.282;2023-06-22T06:21:45;11.57;;;10.60;;
59972;SDS011;55298;-36.624;-64.282;2023-06-22T06:24:14;11.05;;;10.13;;
59972;SDS011;55298;-36.624;-64.282;2023-06-22T06:26:42;10.57;;;9.77;;
59972;SDS011;55298;-36.624;-64.282;2023-06-22T06:29:09;11.48;;;10.48;;
59972;SDS011;55298;-36.624;-64.282;2023-06-22T06:31:38;10.13;;;9.23;;
59972;SDS011;55298;-36.624;-64.282;2023-06-22T06:34:06;10.48;;;9.52;;
59972;SDS011;55298;-36.624;-64.282;2023-06-22T06:36:34;10.35;;;9.45;;
59972;SDS011;55298;-36.624;-64.282;2023-06-22T06:39:03;10.98;;;9.88;;
59972;SDS011;55298;-36.624;-64.282;2023-06-22T06:41:31;10.93;;;9.93;;
59972;SDS011;55298;-36.624;-64.282;2023-06-22T06:43:58;10.13;;;9.32;;
59972;SDS011;55298;-36.624;-64.282;2023-06-22T06:46:26;10.00;;;9.13;;
59972;SDS011;55298;-36.624;-64.282;2023-06-22T06:48:55;11.00;;;10.10;;
59972;SDS011;55298;-36.624;-64.282;2023-06-22T06:51:23;10.75;;;9.75;;
59972;SDS011;55298;-36.624;-64.282;2023-06-22T06:53:50;10.57;;;9.52;;
59972;SDS011;55298;-36.624;-64.282;2023-06-22T06:56:18;11.07;;;10.18;;
59972;SDS011;55298;-36.624;-64.282;2023-06-22T06:58:47;10.73;;;9.80;;
59972;SDS011;55298;-36.624;-64.282;2023-06-22T07:01:17;10.88;;;9.98;;
59972;SDS011;55298;-36.624;-64.282;2023-06-22T07:03:45;10.77;;;9.88;;
59972;SDS011;55298;-36.624;-64.282;2023-06-22T07:06:13;10.60;;;9.70;;
59972;SDS011;55298;-36.624;-64.282;2023-06-22T07:08:48;11.27;;;10.30;;
59972;SDS011;55298;-36.624;-64.282;2023-06-22T07:11:56;11.27;;;10.38;;
59972;SDS011;55298;-36.624;-64.282;2023-06-22T07:14:48;11.75;;;10.65;;
59972;SDS011;55298;-36.624;-64.282;2023-06-22T07:17:22;10.63;;;9.73;;
59972;SDS011;55298;-36.624;-64.282;2023-06-22T07:20:03;11.75;;;10.65;;
59972;SDS011;55298;-36.624;-64.282;2023-06-22T07:22:39;12.25;;;11.05;;
59972;SDS011;55298;-36.624;-64.282;2023-06-22T07:25:27;12.10;;;10.82;;
59972;SDS011;55298;-36.624;-64.282;2023-06-22T07:28:00;11.32;;;10.32;;
59972;SDS011;55298;-36.624;-64.282;2023-06-22T07:33:19;11.18;;;10.18;;
59972;SDS011;55298;-36.624;-64.282;2023-06-22T07:36:10;10.60;;;9.70;;
59972;SDS011;55298;-36.624;-64.282;2023-06-22T07:38:41;11.07;;;9.98;;
59972;SDS011;55298;-36.624;-64.282;2023-06-22T07:43:53;11.68;;;10.68;;
59972;SDS011;55298;-36.624;-64.282;2023-06-22T07:46:53;10.63;;;9.75;;
59972;SDS011;55298;-36.624;-64.282;2023-06-22T07:49:24;11.40;;;10.40;;
59972;SDS011;55298;-36.624;-64.282;2023-06-22T07:51:56;10.95;;;10.02;;
59972;SDS011;55298;-36.624;-64.282;2023-06-22T07:54:58;11.48;;;10.40;;
59972;SDS011;55298;-36.624;-64.282;2023-06-22T07:57:50;12.38;;;11.18;;
59972;SDS011;55298;-36.624;-64.282;2023-06-22T08:00:44;12.40;;;11.20;;
59972;SDS011;55298;-36.624;-64.282;2023-06-22T08:03:16;12.68;;;11.38;;
59972;SDS011;55298;-36.624;-64.282;2023-06-22T08:05:53;13.50;;;12.20;;
59972;SDS011;55298;-36.624;-64.282;2023-06-22T08:08:22;16.65;;;12.63;;
59972;SDS011;55298;-36.624;-64.282;2023-06-22T08:11:01;13.05;;;11.75;;
59972;SDS011;55298;-36.624;-64.282;2023-06-22T08:13:29;16.42;;;12.32;;
59972;SDS011;55298;-36.624;-64.282;2023-06-22T08:16:07;15.80;;;12.90;;
59972;SDS011;55298;-36.624;-64.282;2023-06-22T08:18:37;15.77;;;12.40;;
59972;SDS011;55298;-36.624;-64.282;2023-06-22T08:21:05;14.40;;;12.88;;
59972;SDS011;55298;-36.624;-64.282;2023-06-22T08:23:34;23.92;;;13.85;;
59972;SDS011;55298;-36.624;-64.282;2023-06-22T08:26:03;16.25;;;14.10;;
59972;SDS011;55298;-36.624;-64.282;2023-06-22T08:28:35;18.00;;;14.57;;
59972;SDS011;55298;-36.624;-64.282;2023-06-22T08:31:05;22.27;;;15.07;;
59972;SDS011;55298;-36.624;-64.282;2023-06-22T08:33:32;16.00;;;14.30;;
59972;SDS011;55298;-36.624;-64.282;2023-06-22T08:36:02;19.63;;;13.98;;
59972;SDS011;55298;-36.624;-64.282;2023-06-22T08:38:31;24.23;;;15.75;;
59972;SDS011;55298;-36.624;-64.282;2023-06-22T08:41:02;20.83;;;16.30;;
59972;SDS011;55298;-36.624;-64.282;2023-06-22T08:43:31;21.33;;;15.85;;
59972;SDS011;55298;-36.624;-64.282;2023-06-22T08:46:05;17.48;;;15.68;;
59972;SDS011;55298;-36.624;-64.282;2023-06-22T08:48:34;18.52;;;14.48;;
59972;SDS011;55298;-36.624;-64.282;2023-06-22T08:51:09;17.25;;;15.05;;
59972;SDS011;55298;-36.624;-64.282;2023-06-22T08:53:37;16.02;;;14.02;;
59972;SDS011;55298;-36.624;-64.282;2023-06-22T08:56:06;18.45;;;15.20;;
59972;SDS011;55298;-36.624;-64.282;2023-06-22T08:58:34;16.48;;;14.68;;
59972;SDS011;55298;-36.624;-64.282;2023-06-22T09:01:02;17.27;;;15.45;;
59972;SDS011;55298;-36.624;-64.282;2023-06-22T09:03:31;17.83;;;15.93;;
59972;SDS011;55298;-36.624;-64.282;2023-06-22T09:06:03;19.60;;;15.50;;
59972;SDS011;55298;-36.624;-64.282;2023-06-22T09:08:31;18.52;;;15.63;;
59972;SDS011;55298;-36.624;-64.282;2023-06-22T09:11:03;21.02;;;15.98;;
59972;SDS011;55298;-36.624;-64.282;2023-06-22T09:13:32;17.63;;;15.82;;
59972;SDS011;55298;-36.624;-64.282;2023-06-22T09:16:01;18.15;;;15.52;;
59972;SDS011;55298;-36.624;-64.282;2023-06-22T09:18:29;16.50;;;14.73;;
59972;SDS011;55298;-36.624;-64.282;2023-06-22T09:21:00;17.48;;;15.35;;
59972;SDS011;55298;-36.624;-64.282;2023-06-22T09:23:36;18.27;;;14.55;;
59972;SDS011;55298;-36.624;-64.282;2023-06-22T09:26:11;17.88;;;15.35;;
59972;SDS011;55298;-36.624;-64.282;2023-06-22T09:28:40;17.88;;;14.98;;
59972;SDS011;55298;-36.624;-64.282;2023-06-22T09:31:19;16.48;;;14.77;;
59972;SDS011;55298;-36.624;-64.282;2023-06-22T09:33:52;16.37;;;14.23;;
59972;SDS011;55298;-36.624;-64.282;2023-06-22T09:36:22;15.90;;;14.27;;
59972;SDS011;55298;-36.624;-64.282;2023-06-22T09:38:51;15.18;;;13.65;;
59972;SDS011;55298;-36.624;-64.282;2023-06-22T09:41:22;16.73;;;14.68;;
59972;SDS011;55298;-36.624;-64.282;2023-06-22T09:43:53;17.45;;;14.35;;
59972;SDS011;55298;-36.624;-64.282;2023-06-22T09:46:21;16.55;;;14.38;;
59972;SDS011;55298;-36.624;-64.282;2023-06-22T09:48:53;17.45;;;14.93;;
59972;SDS011;55298;-36.624;-64.282;2023-06-22T09:51:23;15.18;;;13.68;;
59972;SDS011;55298;-36.624;-64.282;2023-06-22T09:53:54;16.15;;;14.40;;
59972;SDS011;55298;-36.624;-64.282;2023-06-22T09:56:31;16.13;;;14.43;;
59972;SDS011;55298;-36.624;-64.282;2023-06-22T09:59:21;20.90;;;15.77;;
59972;SDS011;55298;-36.624;-64.282;2023-06-22T10:02:03;17.95;;;15.15;;
59972;SDS011;55298;-36.624;-64.282;2023-06-22T10:04:55;17.45;;;13.40;;
59972;SDS011;55298;-36.624;-64.282;2023-06-22T10:07:26;20.52;;;15.38;;
59972;SDS011;55298;-36.624;-64.282;2023-06-22T10:09:58;20.08;;;15.82;;
59972;SDS011;55298;-36.624;-64.282;2023-06-22T10:12:29;19.63;;;16.25;;
59972;SDS011;55298;-36.624;-64.282;2023-06-22T10:15:01;19.25;;;15.45;;
59972;SDS011;55298;-36.624;-64.282;2023-06-22T10:17:31;17.70;;;14.35;;
59972;SDS011;55298;-36.624;-64.282;2023-06-22T10:23:18;16.02;;;13.85;;
59972;SDS011;55298;-36.624;-64.282;2023-06-22T10:25:52;15.15;;;13.32;;
59972;SDS011;55298;-36.624;-64.282;2023-06-22T10:28:23;15.27;;;13.52;;
59972;SDS011;55298;-36.624;-64.282;2023-06-22T10:30:52;15.85;;;13.82;;
59972;SDS011;55298;-36.624;-64.282;2023-06-22T10:33:20;17.63;;;15.80;;
59972;SDS011;55298;-36.624;-64.282;2023-06-22T10:35:48;17.45;;;15.60;;
59972;SDS011;55298;-36.624;-64.282;2023-06-22T10:38:16;16.98;;;14.20;;
59972;SDS011;55298;-36.624;-64.282;2023-06-22T10:40:46;14.90;;;13.30;;
59972;SDS011;55298;-36.624;-64.282;2023-06-22T10:43:15;16.73;;;14.20;;
59972;SDS011;55298;-36.624;-64.282;2023-06-22T10:45:44;16.70;;;14.35;;
59972;SDS011;55298;-36.624;-64.282;2023-06-22T10:48:12;14.02;;;12.63;;
59972;SDS011;55298;-36.624;-64.282;2023-06-22T10:50:40;18.15;;;14.23;;
59972;SDS011;55298;-36.624;-64.282;2023-06-22T10:53:13;16.48;;;13.45;;
59972;SDS011;55298;-36.624;-64.282;2023-06-22T10:55:44;14.77;;;13.25;;
59972;SDS011;55298;-36.624;-64.282;2023-06-22T10:58:13;17.10;;;13.40;;
59972;SDS011;55298;-36.624;-64.282;2023-06-22T11:00:41;16.15;;;14.15;;
59972;SDS011;55298;-36.624;-64.282;2023-06-22T11:03:15;16.67;;;14.90;;
59972;SDS011;55298;-36.624;-64.282;2023-06-22T11:05:44;15.40;;;13.80;;
59972;SDS011;55298;-36.624;-64.282;2023-06-22T11:08:16;14.70;;;13.23;;
59972;SDS011;55298;-36.624;-64.282;2023-06-22T11:10:46;18.08;;;14.55;;
59972;SDS011;55298;-36.624;-64.282;2023-06-22T11:13:19;15.15;;;13.55;;
59972;SDS011;55298;-36.624;-64.282;2023-06-22T11:15:47;14.80;;;13.30;;
59972;SDS011;55298;-36.624;-64.282;2023-06-22T11:18:15;15.50;;;13.27;;
59972;SDS011;55298;-36.624;-64.282;2023-06-22T11:20:43;15.05;;;13.45;;
59972;SDS011;55298;-36.624;-64.282;2023-06-22T11:23:15;14.82;;;13.32;;
59972;SDS011;55298;-36.624;-64.282;2023-06-22T11:25:46;16.35;;;14.65;;
59972;SDS011;55298;-36.624;-64.282;2023-06-22T11:28:17;16.23;;;14.52;;
59972;SDS011;55298;-36.624;-64.282;2023-06-22T11:30:45;16.13;;;14.20;;
59972;SDS011;55298;-36.624;-64.282;2023-06-22T11:33:14;16.42;;;14.70;;
59972;SDS011;55298;-36.624;-64.282;2023-06-22T11:35:46;18.05;;;15.40;;
59972;SDS011;55298;-36.624;-64.282;2023-06-22T11:38:15;15.52;;;13.93;;
59972;SDS011;55298;-36.624;-64.282;2023-06-22T11:40:50;15.80;;;13.82;;
59972;SDS011;55298;-36.624;-64.282;2023-06-22T11:43:21;14.52;;;13.02;;
59972;SDS011;55298;-36.624;-64.282;2023-06-22T11:45:49;14.15;;;12.75;;
59972;SDS011;55298;-36.624;-64.282;2023-06-22T11:48:18;16.83;;;14.15;;
59972;SDS011;55298;-36.624;-64.282;2023-06-22T11:50:46;22.60;;;15.73;;
59972;SDS011;55298;-36.624;-64.282;2023-06-22T11:55:44;14.23;;;12.82;;
59972;SDS011;55298;-36.624;-64.282;2023-06-22T11:58:12;18.70;;;13.48;;
59972;SDS011;55298;-36.624;-64.282;2023-06-22T12:00:40;17.60;;;15.80;;
59972;SDS011;55298;-36.624;-64.282;2023-06-22T12:03:08;14.30;;;12.80;;
59972;SDS011;55298;-36.624;-64.282;2023-06-22T12:05:39;16.30;;;14.35;;
59972;SDS011;55298;-36.624;-64.282;2023-06-22T12:08:07;15.82;;;14.13;;
59972;SDS011;55298;-36.624;-64.282;2023-06-22T12:11:23;14.60;;;12.98;;
59972;SDS011;55298;-36.624;-64.282;2023-06-22T12:13:52;14.65;;;13.07;;
59972;SDS011;55298;-36.624;-64.282;2023-06-22T12:16:21;17.30;;;13.60;;
59972;SDS011;55298;-36.624;-64.282;2023-06-22T12:18:51;14.63;;;13.13;;
59972;SDS011;55298;-36.624;-64.282;2023-06-22T12:21:22;17.63;;;14.57;;
59972;SDS011;55298;-36.624;-64.282;2023-06-22T12:23:54;16.58;;;13.27;;
59972;SDS011;55298;-36.624;-64.282;2023-06-22T12:26:32;16.02;;;14.40;;
59972;SDS011;55298;-36.624;-64.282;2023-06-22T12:29:03;16.27;;;14.57;;
59972;SDS011;55298;-36.624;-64.282;2023-06-22T12:31:35;15.35;;;13.75;;
59972;SDS011;55298;-36.624;-64.282;2023-06-22T12:34:05;14.95;;;13.15;;
59972;SDS011;55298;-36.624;-64.282;2023-06-22T12:36:35;14.75;;;13.23;;
59972;SDS011;55298;-36.624;-64.282;2023-06-22T12:39:06;19.15;;;15.98;;
59972;SDS011;55298;-36.624;-64.282;2023-06-22T12:41:34;14.95;;;13.55;;
59972;SDS011;55298;-36.624;-64.282;2023-06-22T12:44:02;13.55;;;12.15;;
59972;SDS011;55298;-36.624;-64.282;2023-06-22T12:46:31;15.55;;;14.02;;
59972;SDS011;55298;-36.624;-64.282;2023-06-22T12:49:04;18.27;;;16.33;;
59972;SDS011;55298;-36.624;-64.282;2023-06-22T12:51:39;14.10;;;12.23;;
59972;SDS011;55298;-36.624;-64.282;2023-06-22T12:54:08;13.70;;;12.40;;
59972;SDS011;55298;-36.624;-64.282;2023-06-22T12:56:37;14.10;;;12.80;;
59972;SDS011;55298;-36.624;-64.282;2023-06-22T12:59:09;13.02;;;11.85;;
59972;SDS011;55298;-36.624;-64.282;2023-06-22T13:01:38;13.77;;;12.38;;
59972;SDS011;55298;-36.624;-64.282;2023-06-22T13:04:06;13.48;;;12.18;;
59972;SDS011;55298;-36.624;-64.282;2023-06-22T13:06:36;13.43;;;12.07;;
59972;SDS011;55298;-36.624;-64.282;2023-06-22T13:09:04;14.10;;;12.90;;
59972;SDS011;55298;-36.624;-64.282;2023-06-22T13:11:33;13.95;;;12.65;;
59972;SDS011;55298;-36.624;-64.282;2023-06-22T13:14:01;15.80;;;14.13;;
59972;SDS011;55298;-36.624;-64.282;2023-06-22T13:16:37;14.77;;;13.07;;
59972;SDS011;55298;-36.624;-64.282;2023-06-22T13:19:05;16.25;;;14.45;;
59972;SDS011;55298;-36.624;-64.282;2023-06-22T13:21:34;13.27;;;12.13;;
59972;SDS011;55298;-36.624;-64.282;2023-06-22T13:24:09;16.25;;;14.73;;
59972;SDS011;55298;-36.624;-64.282;2023-06-22T13:26:37;13.68;;;12.57;;
59972;SDS011;55298;-36.624;-64.282;2023-06-22T13:29:07;12.88;;;11.55;;
59972;SDS011;55298;-36.624;-64.282;2023-06-22T13:31:48;12.10;;;10.93;;
59972;SDS011;55298;-36.624;-64.282;2023-06-22T13:34:17;11.85;;;10.77;;
59972;SDS011;55298;-36.624;-64.282;2023-06-22T13:36:48;11.32;;;10.30;;
59972;SDS011;55298;-36.624;-64.282;2023-06-22T13:39:16;11.55;;;10.45;;
59972;SDS011;55298;-36.624;-64.282;2023-06-22T13:41:45;11.48;;;10.45;;
59972;SDS011;55298;-36.624;-64.282;2023-06-22T13:44:12;11.30;;;10.38;;
59972;SDS011;55298;-36.624;-64.282;2023-06-22T13:46:40;18.58;;;16.70;;
59972;SDS011;55298;-36.624;-64.282;2023-06-22T13:49:08;11.27;;;10.38;;
59972;SDS011;55298;-36.624;-64.282;2023-06-22T13:51:40;11.32;;;10.40;;
59972;SDS011;55298;-36.624;-64.282;2023-06-22T13:54:08;11.87;;;10.67;;
59972;SDS011;55298;-36.624;-64.282;2023-06-22T13:56:36;12.40;;;11.20;;
59972;SDS011;55298;-36.624;-64.282;2023-06-22T13:59:04;13.00;;;11.90;;
59972;SDS011;55298;-36.624;-64.282;2023-06-22T14:01:35;13.30;;;12.20;;
59972;SDS011;55298;-36.624;-64.282;2023-06-22T14:04:05;12.35;;;11.07;;
59972;SDS011;55298;-36.624;-64.282;2023-06-22T14:06:33;14.95;;;13.00;;
59972;SDS011;55298;-36.624;-64.282;2023-06-22T14:09:01;11.18;;;10.07;;
59972;SDS011;55298;-36.624;-64.282;2023-06-22T14:11:28;12.75;;;10.65;;
59972;SDS011;55298;-36.624;-64.282;2023-06-22T14:14:00;11.07;;;10.18;;
59972;SDS011;55298;-36.624;-64.282;2023-06-22T14:16:28;10.05;;;9.07;;
59972;SDS011;55298;-36.624;-64.282;2023-06-22T14:18:56;10.15;;;9.32;;
59972;SDS011;55298;-36.624;-64.282;2023-06-22T14:21:32;9.50;;;8.70;;
59972;SDS011;55298;-36.624;-64.282;2023-06-22T14:24:00;10.50;;;9.68;;
59972;SDS011;55298;-36.624;-64.282;2023-06-22T14:26:33;9.75;;;9.05;;
59972;SDS011;55298;-36.624;-64.282;2023-06-22T14:29:04;9.88;;;9.10;;
59972;SDS011;55298;-36.624;-64.282;2023-06-22T14:31:32;10.40;;;9.50;;
59972;SDS011;55298;-36.624;-64.282;2023-06-22T14:34:00;10.32;;;9.38;;